createdAt,value
2023-01-19T00:00:28.956Z,14.07
2023-01-19T00:02:55.516Z,9.18
2023-01-19T00:05:22.125Z,10.38
2023-01-19T00:07:48.800Z,12.10
2023-01-19T00:10:15.371Z,9.27
2023-01-19T00:12:41.895Z,13.05
2023-01-19T00:15:08.938Z,11.43
2023-01-19T00:17:35.554Z,12.07
2023-01-19T00:20:01.952Z,10.07
2023-01-19T00:22:28.348Z,9.23
2023-01-19T00:24:54.783Z,12.45
2023-01-19T00:27:21.280Z,9.30
2023-01-19T00:29:47.815Z,4.90
2023-01-19T00:32:14.384Z,4.70
2023-01-19T00:34:42.627Z,6.57
2023-01-19T00:37:10.082Z,2.85
2023-01-19T00:39:36.682Z,3.58
2023-01-19T00:42:21.811Z,3.25
2023-01-19T00:44:48.312Z,3.47
2023-01-19T00:47:14.820Z,3.10
2023-01-19T00:49:41.310Z,4.53
2023-01-19T00:52:07.772Z,3.25
2023-01-19T00:54:34.231Z,4.30
2023-01-19T00:57:00.623Z,4.28
2023-01-19T00:59:27.723Z,7.78
2023-01-19T01:01:54.838Z,11.15
2023-01-19T01:04:21.565Z,8.23
2023-01-19T01:06:48.100Z,11.73
2023-01-19T01:09:14.667Z,9.23
2023-01-19T01:11:42.816Z,11.07
2023-01-19T01:14:13.173Z,11.23
2023-01-19T01:16:39.773Z,10.40
2023-01-19T01:19:06.284Z,12.00
2023-01-19T01:21:34.511Z,10.75
2023-01-19T01:24:01.524Z,6.13
2023-01-19T01:26:27.918Z,10.55
2023-01-19T01:28:54.337Z,10.25
2023-01-19T01:31:20.749Z,8.02
2023-01-19T01:33:47.214Z,6.00
2023-01-19T01:36:14.068Z,7.72
2023-01-19T01:38:41.710Z,7.88
2023-01-19T01:41:09.016Z,7.47
2023-01-19T01:43:44.970Z,10.43
2023-01-19T01:46:12.059Z,6.38
2023-01-19T01:48:39.339Z,4.40
2023-01-19T01:51:25.748Z,7.97
2023-01-19T01:54:00.507Z,7.55
2023-01-19T01:56:34.120Z,4.78
2023-01-19T01:59:05.544Z,3.55
2023-01-19T02:01:51.021Z,3.97
2023-01-19T02:04:18.196Z,3.08
2023-01-19T02:07:03.475Z,3.50
2023-01-19T02:09:53.510Z,3.97
2023-01-19T02:12:38.722Z,1.25
2023-01-19T02:15:05.744Z,2.05
2023-01-19T02:17:32.626Z,3.00
2023-01-19T02:19:59.448Z,3.03
2023-01-19T02:22:36.003Z,0.32
2023-01-19T02:25:04.735Z,1.17
2023-01-19T02:27:32.430Z,1.90
2023-01-19T02:30:00.364Z,2.28
2023-01-19T02:32:27.314Z,1.38
2023-01-19T02:34:54.771Z,1.30
2023-01-19T02:37:22.064Z,1.58
2023-01-19T02:39:57.677Z,1.25
2023-01-19T02:42:43.609Z,1.67
2023-01-19T02:45:12.711Z,4.80
2023-01-19T02:47:44.369Z,8.80
2023-01-19T02:50:45.939Z,4.00
2023-01-19T02:53:27.801Z,3.67
2023-01-19T02:56:04.414Z,3.75
2023-01-19T02:58:38.083Z,4.28
2023-01-19T03:01:21.470Z,2.53
2023-01-19T03:03:56.367Z,2.83
2023-01-19T03:06:49.394Z,2.30
2023-01-19T03:09:32.437Z,1.95
2023-01-19T03:12:15.557Z,1.98
2023-01-19T03:14:46.904Z,5.93
2023-01-19T03:17:16.997Z,1.20
2023-01-19T03:19:48.530Z,0.32
2023-01-19T03:22:21.309Z,2.03
2023-01-19T03:24:50.384Z,1.42
2023-01-19T03:27:26.226Z,1.38
2023-01-19T03:29:57.735Z,1.48
2023-01-19T03:32:36.132Z,2.20
2023-01-19T03:35:07.958Z,5.22
2023-01-19T03:37:42.715Z,0.50
2023-01-19T03:40:10.671Z,6.57
2023-01-19T03:42:38.981Z,4.97
2023-01-19T03:45:07.342Z,3.95
2023-01-19T03:47:35.288Z,3.67
2023-01-19T03:50:07.133Z,1.23
2023-01-19T03:52:33.636Z,0.32
2023-01-19T03:55:05.433Z,1.65
2023-01-19T03:57:32.418Z,0.80
2023-01-19T03:59:58.906Z,0.60
2023-01-19T04:02:25.440Z,2.22
2023-01-19T04:04:51.895Z,1.55
2023-01-19T04:07:18.323Z,1.90
2023-01-19T04:09:45.094Z,1.35
2023-01-19T04:12:11.600Z,2.90
2023-01-19T04:14:38.029Z,4.80
2023-01-19T04:17:05.097Z,4.22
2023-01-19T04:19:31.612Z,0.85
2023-01-19T04:21:58.220Z,3.50
2023-01-19T04:24:24.742Z,1.42
2023-01-19T04:26:53.432Z,0.95
2023-01-19T04:29:19.967Z,2.85
2023-01-19T04:31:46.421Z,2.45
2023-01-19T04:34:12.837Z,1.98
2023-01-19T04:36:39.256Z,3.75
2023-01-19T04:39:06.051Z,2.22
2023-01-19T04:41:32.591Z,2.53
2023-01-19T04:43:59.059Z,3.53
2023-01-19T04:46:25.593Z,0.88
2023-01-19T04:48:52.470Z,1.08
2023-01-19T04:51:18.882Z,6.40
2023-01-19T04:53:45.327Z,4.20
2023-01-19T04:56:12.366Z,2.78
2023-01-19T04:58:38.949Z,2.58
2023-01-19T05:01:09.640Z,2.28
2023-01-19T05:03:36.076Z,6.38
2023-01-19T05:06:02.677Z,0.73
2023-01-19T05:08:29.442Z,4.03
2023-01-19T05:10:57.511Z,5.57
2023-01-19T05:13:24.104Z,2.90
2023-01-19T05:15:50.686Z,2.67
2023-01-19T05:18:17.988Z,5.22
2023-01-19T05:20:44.633Z,4.38
2023-01-19T05:23:11.244Z,6.68
2023-01-19T05:25:37.759Z,3.70
2023-01-19T05:28:04.551Z,0.98
2023-01-19T05:30:31.318Z,3.45
2023-01-19T05:32:57.812Z,5.40
2023-01-19T05:35:35.253Z,9.27
2023-01-19T05:38:02.341Z,4.75
2023-01-19T05:40:28.789Z,5.55
2023-01-19T05:42:55.588Z,4.68
2023-01-19T05:45:22.164Z,7.57
2023-01-19T05:47:48.643Z,6.47
2023-01-19T05:50:15.382Z,5.28
2023-01-19T05:52:41.821Z,8.48
2023-01-19T05:55:08.952Z,9.02
2023-01-19T05:57:35.341Z,3.58
2023-01-19T06:00:02.290Z,9.77
2023-01-19T06:02:36.267Z,13.15
2023-01-19T06:05:02.771Z,4.50
2023-01-19T06:07:29.333Z,5.32
2023-01-19T06:09:55.789Z,7.63
2023-01-19T06:12:22.232Z,16.73
2023-01-19T06:14:49.377Z,9.77
2023-01-19T06:17:16.038Z,7.05
2023-01-19T06:19:42.503Z,1.95
2023-01-19T06:22:08.976Z,5.13
2023-01-19T06:24:35.384Z,1.23
2023-01-19T06:27:02.379Z,5.88
2023-01-19T06:29:29.543Z,5.80
2023-01-19T06:31:56.454Z,3.85
2023-01-19T06:34:26.923Z,3.83
2023-01-19T06:36:53.370Z,2.65
2023-01-19T06:39:19.785Z,4.63
2023-01-19T06:41:46.425Z,9.32
2023-01-19T06:44:12.876Z,2.85
2023-01-19T06:46:39.300Z,12.00
2023-01-19T06:49:05.787Z,10.05
2023-01-19T06:51:32.227Z,4.13
2023-01-19T06:53:59.042Z,5.25
2023-01-19T06:56:25.816Z,4.45
2023-01-19T06:58:53.292Z,3.45
2023-01-19T07:01:19.839Z,7.72
2023-01-19T07:03:47.070Z,7.95
2023-01-19T07:06:13.533Z,6.88
2023-01-19T07:08:40.061Z,9.95
2023-01-19T07:11:23.672Z,9.35
2023-01-19T07:13:55.385Z,6.75
2023-01-19T07:16:21.967Z,7.75
2023-01-19T07:18:48.901Z,7.57
2023-01-19T07:21:15.662Z,6.13
2023-01-19T07:23:43.290Z,6.50
2023-01-19T07:26:10.423Z,8.88
2023-01-19T07:28:37.232Z,4.18
2023-01-19T07:31:04.210Z,5.22
2023-01-19T07:33:30.718Z,7.32
2023-01-19T07:35:57.299Z,9.25
2023-01-19T07:38:23.931Z,9.70
2023-01-19T07:40:50.375Z,6.70
2023-01-19T07:43:16.962Z,12.65
2023-01-19T07:45:44.825Z,3.95
2023-01-19T07:48:11.628Z,4.57
2023-01-19T07:50:38.551Z,7.90
2023-01-19T07:53:09.112Z,3.38
2023-01-19T07:55:35.909Z,9.32
2023-01-19T07:58:06.477Z,12.75
2023-01-19T08:00:35.193Z,5.22
2023-01-19T08:03:03.542Z,13.63
2023-01-19T08:05:31.151Z,8.38
2023-01-19T08:07:58.843Z,4.78
2023-01-19T08:10:27.922Z,7.68
2023-01-19T08:12:55.825Z,8.00
2023-01-19T08:15:24.073Z,4.45
2023-01-19T08:18:02.302Z,9.75
2023-01-19T08:20:29.604Z,5.15
2023-01-19T08:23:03.026Z,9.27
2023-01-19T08:25:42.159Z,9.48
2023-01-19T08:28:09.421Z,8.63
2023-01-19T08:30:36.303Z,12.52
2023-01-19T08:33:07.928Z,9.85
2023-01-19T08:35:39.463Z,10.52
2023-01-19T08:38:07.310Z,17.40
2023-01-19T08:40:36.861Z,11.65
2023-01-19T08:43:08.504Z,7.93
2023-01-19T08:45:37.179Z,7.28
2023-01-19T08:48:06.295Z,6.28
2023-01-19T08:50:33.983Z,10.55
2023-01-19T08:53:03.514Z,12.45
2023-01-19T08:55:30.502Z,6.50
2023-01-19T08:57:59.912Z,7.93
2023-01-19T09:00:27.103Z,9.73
2023-01-19T09:02:54.786Z,5.72
2023-01-19T09:05:21.376Z,9.90
2023-01-19T09:07:51.681Z,11.18
2023-01-19T09:10:18.880Z,4.65
2023-01-19T09:12:46.342Z,8.25
2023-01-19T09:15:15.308Z,10.60
2023-01-19T09:17:44.784Z,9.82
2023-01-19T09:20:11.526Z,4.35
2023-01-19T09:22:39.630Z,9.55
2023-01-19T09:25:07.591Z,11.32
2023-01-19T09:27:34.958Z,13.90
2023-01-19T09:30:01.779Z,7.88
2023-01-19T09:32:28.235Z,9.55
2023-01-19T09:34:56.381Z,7.53
2023-01-19T09:37:23.576Z,6.38
2023-01-19T09:39:50.279Z,4.50
2023-01-19T09:42:44.497Z,7.13
2023-01-19T09:45:18.994Z,3.22
2023-01-19T09:47:48.538Z,7.43
2023-01-19T09:50:24.601Z,4.50
2023-01-19T09:52:57.154Z,8.90
2023-01-19T09:55:26.885Z,4.75
2023-01-19T09:57:54.224Z,8.32
2023-01-19T10:00:23.289Z,4.60
2023-01-19T10:05:45.868Z,7.88
2023-01-19T10:08:23.581Z,5.30
2023-01-19T10:10:55.039Z,5.97
2023-01-19T10:13:31.801Z,7.10
2023-01-19T10:16:31.941Z,8.77
2023-01-19T10:19:18.377Z,4.90
2023-01-19T10:21:46.385Z,7.60
2023-01-19T10:24:25.195Z,6.88
2023-01-19T10:26:55.020Z,5.15
2023-01-19T10:29:36.324Z,6.63
2023-01-19T10:32:19.997Z,6.78
2023-01-19T10:34:47.780Z,4.82
2023-01-19T10:37:47.794Z,10.95
2023-01-19T10:40:19.935Z,8.95
2023-01-19T10:42:46.503Z,4.07
2023-01-19T10:45:23.139Z,5.88
2023-01-19T10:47:50.241Z,5.80
2023-01-19T10:50:29.793Z,4.75
2023-01-19T10:52:59.456Z,8.45
2023-01-19T10:55:31.651Z,5.53
2023-01-19T10:57:59.218Z,6.43
2023-01-19T11:00:40.166Z,6.07
2023-01-19T11:03:30.935Z,5.60
2023-01-19T11:06:26.527Z,5.47
2023-01-19T11:09:08.690Z,5.18
2023-01-19T11:11:42.929Z,3.70
2023-01-19T11:14:15.092Z,6.70
2023-01-19T11:16:47.996Z,5.97
2023-01-19T11:19:24.440Z,6.57
2023-01-19T11:21:51.196Z,5.95
2023-01-19T11:24:17.802Z,4.45
2023-01-19T11:26:57.391Z,5.63
2023-01-19T11:29:26.334Z,5.78
2023-01-19T11:31:54.757Z,4.32
2023-01-19T11:34:34.389Z,2.90
2023-01-19T11:37:06.744Z,7.60
2023-01-19T11:39:46.888Z,8.20
2023-01-19T11:42:14.650Z,9.80
2023-01-19T11:44:52.665Z,5.25
2023-01-19T11:47:27.086Z,3.17
2023-01-19T11:50:05.965Z,5.35
2023-01-19T11:52:43.080Z,5.35
2023-01-19T11:55:23.858Z,4.93
2023-01-19T11:57:54.294Z,3.00
2023-01-19T12:00:29.062Z,5.20
2023-01-19T12:03:01.883Z,3.92
2023-01-19T12:05:33.407Z,3.22
2023-01-19T12:08:06.731Z,8.30
2023-01-19T12:10:41.633Z,4.63
2023-01-19T12:13:21.772Z,2.38
2023-01-19T12:16:01.308Z,6.05
2023-01-19T12:18:32.413Z,3.80
2023-01-19T12:20:59.009Z,6.20
2023-01-19T12:23:44.733Z,7.63
2023-01-19T12:26:27.890Z,4.07
2023-01-19T12:28:58.987Z,2.72
2023-01-19T12:31:25.699Z,4.35
2023-01-19T12:33:52.639Z,2.22
2023-01-19T12:36:35.421Z,4.57
2023-01-19T12:39:19.650Z,2.10
2023-01-19T12:41:47.215Z,4.82
2023-01-19T12:44:16.168Z,2.83
2023-01-19T12:47:07.501Z,6.25
2023-01-19T12:49:45.252Z,4.35
2023-01-19T12:52:19.860Z,2.70
2023-01-19T12:55:11.212Z,1.30
2023-01-19T12:57:58.270Z,4.88
2023-01-19T13:00:24.712Z,2.83
2023-01-19T13:02:54.450Z,4.97
2023-01-19T13:05:38.980Z,3.53
2023-01-19T13:08:05.518Z,2.40
2023-01-19T13:11:02.893Z,4.90
2023-01-19T13:13:36.320Z,4.15
2023-01-19T13:16:18.133Z,5.07
2023-01-19T13:18:48.600Z,1.83
2023-01-19T13:21:28.750Z,3.17
2023-01-19T13:24:00.387Z,3.50
2023-01-19T13:26:39.058Z,2.05
2023-01-19T13:29:10.734Z,4.97
2023-01-19T13:31:39.736Z,3.00
2023-01-19T13:34:13.781Z,1.75
2023-01-19T13:36:44.858Z,6.60
2023-01-19T13:39:23.005Z,3.70
2023-01-19T13:41:52.563Z,2.10
2023-01-19T13:44:28.076Z,2.10
2023-01-19T13:46:59.787Z,5.88
2023-01-19T13:49:30.569Z,4.03
2023-01-19T13:52:22.402Z,4.85
2023-01-19T13:54:53.365Z,2.20
2023-01-19T13:57:24.313Z,3.25
2023-01-19T14:00:11.887Z,3.00
2023-01-19T14:02:40.111Z,2.22
2023-01-19T14:05:22.281Z,1.65
2023-01-19T14:07:59.041Z,5.72
2023-01-19T14:10:25.685Z,1.88
2023-01-19T14:13:22.598Z,3.05
2023-01-19T14:15:51.815Z,1.30
2023-01-19T14:18:18.477Z,1.55
2023-01-19T14:21:00.946Z,3.08
2023-01-19T14:24:02.649Z,4.03
2023-01-19T14:26:38.399Z,3.15
2023-01-19T14:29:27.753Z,6.80
2023-01-19T14:32:00.076Z,3.83
2023-01-19T14:34:35.684Z,3.08
2023-01-19T14:37:05.063Z,0.90
2023-01-19T14:39:35.596Z,4.25
2023-01-19T14:42:05.281Z,2.63
2023-01-19T14:44:40.759Z,1.45
2023-01-19T14:47:24.901Z,3.35
2023-01-19T14:49:51.406Z,3.83
2023-01-19T14:52:26.816Z,4.22
2023-01-19T14:54:55.430Z,2.45
2023-01-19T14:57:22.234Z,1.50
2023-01-19T14:59:50.197Z,2.42
2023-01-19T15:02:20.305Z,5.00
2023-01-19T15:04:48.036Z,1.52
2023-01-19T15:07:19.499Z,2.72
2023-01-19T15:09:49.147Z,2.80
2023-01-19T15:12:17.600Z,3.75
2023-01-19T15:14:45.326Z,5.93
2023-01-19T15:17:25.386Z,2.28
2023-01-19T15:19:54.008Z,6.32
2023-01-19T15:22:22.337Z,6.32
2023-01-19T15:24:49.695Z,1.52
2023-01-19T15:27:16.430Z,4.45
2023-01-19T15:29:42.897Z,5.82
2023-01-19T15:32:14.074Z,2.40
2023-01-19T15:34:41.710Z,5.38
2023-01-19T15:37:08.205Z,2.38
2023-01-19T15:39:35.282Z,1.63
2023-01-19T15:42:02.074Z,5.18
2023-01-19T15:44:29.488Z,3.33
2023-01-19T15:46:57.388Z,5.72
2023-01-19T15:49:24.095Z,2.65
2023-01-19T15:51:50.567Z,3.03
2023-01-19T15:54:18.445Z,2.33
2023-01-19T15:56:44.930Z,2.95
2023-01-19T15:59:11.473Z,1.85
2023-01-19T16:01:40.647Z,2.15
2023-01-19T16:06:36.026Z,1.75
2023-01-19T16:09:03.846Z,4.18
2023-01-19T16:11:33.421Z,5.70
2023-01-19T16:14:00.492Z,2.58
2023-01-19T16:16:28.150Z,1.92
2023-01-19T16:18:55.425Z,2.50
2023-01-19T16:21:22.525Z,2.60
2023-01-19T16:23:49.107Z,2.63
2023-01-19T16:26:34.742Z,2.97
2023-01-19T16:29:10.538Z,2.85
2023-01-19T16:31:38.480Z,3.35
2023-01-19T16:34:05.132Z,5.30
2023-01-19T16:36:33.228Z,2.88
2023-01-19T16:39:01.639Z,4.68
2023-01-19T16:41:28.493Z,2.00
2023-01-19T16:43:56.341Z,4.28
2023-01-19T16:46:29.713Z,4.57
2023-01-19T16:49:02.703Z,4.45
2023-01-19T16:51:29.655Z,5.88
2023-01-19T16:53:56.569Z,4.88
2023-01-19T16:56:23.064Z,3.40
2023-01-19T16:58:56.272Z,5.63
2023-01-19T17:01:25.034Z,4.22
2023-01-19T17:03:51.647Z,4.57
2023-01-19T17:06:22.637Z,8.88
2023-01-19T17:08:50.145Z,8.20
2023-01-19T17:11:22.211Z,9.98
2023-01-19T17:13:56.315Z,7.28
2023-01-19T17:16:24.351Z,6.70
2023-01-19T17:18:52.201Z,8.68
2023-01-19T17:21:20.003Z,9.38
2023-01-19T17:23:48.448Z,8.07
2023-01-19T17:26:15.832Z,8.55
2023-01-19T17:28:42.808Z,9.48
2023-01-19T17:31:15.429Z,10.70
2023-01-19T17:33:46.973Z,6.40
2023-01-19T17:36:15.984Z,8.23
2023-01-19T17:38:42.808Z,10.88
2023-01-19T17:41:17.769Z,8.63
2023-01-19T17:43:46.017Z,8.55
2023-01-19T17:46:13.052Z,9.43
2023-01-19T17:48:40.093Z,9.70
2023-01-19T17:51:09.497Z,8.05
2023-01-19T17:56:08.101Z,7.22
2023-01-19T17:58:34.809Z,6.50
2023-01-19T18:01:15.285Z,12.20
2023-01-19T18:03:42.423Z,9.32
2023-01-19T18:06:10.189Z,12.20
2023-01-19T18:08:41.437Z,12.45
2023-01-19T18:11:08.936Z,13.77
2023-01-19T18:13:36.427Z,11.77
2023-01-19T18:16:08.628Z,10.95
2023-01-19T18:18:36.267Z,13.25
2023-01-19T18:21:06.398Z,11.63
2023-01-19T18:23:32.977Z,10.90
2023-01-19T18:26:01.227Z,13.43
2023-01-19T18:28:28.070Z,10.30
2023-01-19T18:30:54.737Z,12.50
2023-01-19T18:33:21.691Z,11.02
2023-01-19T18:35:48.680Z,12.00
2023-01-19T18:38:15.556Z,12.73
2023-01-19T18:40:42.247Z,10.70
2023-01-19T18:43:10.513Z,13.80
2023-01-19T18:45:39.871Z,13.57
2023-01-19T18:48:06.445Z,18.15
2023-01-19T18:50:33.413Z,13.68
2023-01-19T18:52:59.941Z,14.32
2023-01-19T18:55:26.381Z,13.93
2023-01-19T18:57:53.040Z,16.17
2023-01-19T19:00:19.921Z,11.45
2023-01-19T19:02:46.377Z,14.48
2023-01-19T19:05:12.822Z,11.63
2023-01-19T19:07:39.295Z,11.82
2023-01-19T19:10:06.285Z,10.85
2023-01-19T19:12:32.809Z,8.15
2023-01-19T19:14:59.227Z,8.00
2023-01-19T19:17:25.783Z,9.38
2023-01-19T19:19:52.336Z,10.32
2023-01-19T19:22:18.823Z,9.63
2023-01-19T19:24:45.647Z,7.13
2023-01-19T19:27:14.202Z,8.35
2023-01-19T19:29:41.245Z,5.90
2023-01-19T19:32:08.249Z,6.40
2023-01-19T19:34:34.920Z,4.90
2023-01-19T19:37:02.377Z,6.20
2023-01-19T19:39:29.136Z,4.95
2023-01-19T19:41:55.659Z,6.97
2023-01-19T19:44:22.402Z,4.57
2023-01-19T19:46:48.924Z,5.68
2023-01-19T19:49:21.202Z,6.47
2023-01-19T19:51:48.851Z,3.85
2023-01-19T19:54:15.378Z,5.93
2023-01-19T19:56:41.819Z,4.18
2023-01-19T19:59:08.226Z,7.63
2023-01-19T20:01:34.879Z,2.97
2023-01-19T20:04:07.678Z,2.35
2023-01-19T20:06:38.727Z,5.88
2023-01-19T20:09:07.128Z,1.88
2023-01-19T20:11:33.612Z,3.38
2023-01-19T20:14:00.533Z,1.30
2023-01-19T20:16:26.990Z,2.15
2023-01-19T20:18:54.286Z,1.92
2023-01-19T20:21:26.556Z,6.55
2023-01-19T20:23:54.965Z,3.08
2023-01-19T20:26:25.135Z,2.95
2023-01-19T20:28:52.487Z,3.45
2023-01-19T20:31:22.633Z,1.80
2023-01-19T20:33:51.183Z,2.85
2023-01-19T20:36:18.107Z,1.98
2023-01-19T20:38:44.941Z,3.35
2023-01-19T20:41:12.852Z,1.77
2023-01-19T20:43:40.111Z,2.00
2023-01-19T20:46:07.119Z,0.60
2023-01-19T20:48:33.961Z,1.42
2023-01-19T20:51:02.212Z,0.77
2023-01-19T20:53:29.267Z,0.77
2023-01-19T20:55:55.812Z,1.35
2023-01-19T20:58:23.776Z,1.17
2023-01-19T21:00:50.810Z,1.42
2023-01-19T21:03:18.022Z,2.50
2023-01-19T21:05:48.322Z,1.05
2023-01-19T21:08:15.392Z,1.58
2023-01-19T21:10:42.864Z,3.33
2023-01-19T21:13:09.337Z,8.10
2023-01-19T21:15:35.822Z,6.10
2023-01-19T21:18:02.473Z,4.68
2023-01-19T21:20:29.882Z,2.88
2023-01-19T21:22:57.241Z,3.75
2023-01-19T21:25:23.721Z,6.13
2023-01-19T21:27:50.800Z,7.43
2023-01-19T21:30:18.549Z,5.28
2023-01-19T21:32:45.499Z,4.53
2023-01-19T21:35:12.490Z,3.55
2023-01-19T21:37:39.085Z,3.40
2023-01-19T21:40:20.573Z,4.85
2023-01-19T21:42:46.980Z,4.70
2023-01-19T21:45:13.691Z,5.07
2023-01-19T21:47:40.337Z,3.95
2023-01-19T21:50:07.037Z,5.47
2023-01-19T21:52:33.951Z,8.10
2023-01-19T21:55:00.422Z,5.13
2023-01-19T21:57:27.014Z,6.03
2023-01-19T21:59:53.476Z,6.03
2023-01-19T22:02:37.184Z,5.65
2023-01-19T22:05:06.435Z,5.60
2023-01-19T22:07:33.126Z,6.97
2023-01-19T22:09:59.822Z,6.03
2023-01-19T22:12:26.387Z,11.40
2023-01-19T22:14:54.339Z,7.32
2023-01-19T22:17:20.931Z,8.43
2023-01-19T22:19:48.109Z,5.97
2023-01-19T22:22:15.024Z,8.13
2023-01-19T22:24:46.365Z,6.07
2023-01-19T22:27:13.272Z,4.47
2023-01-19T22:29:39.689Z,6.28
2023-01-19T22:32:06.456Z,7.07
2023-01-19T22:34:32.935Z,6.05
2023-01-19T22:36:59.321Z,7.00
2023-01-19T22:39:25.762Z,6.28
2023-01-19T22:41:52.182Z,9.02
2023-01-19T22:44:20.992Z,6.25
2023-01-19T22:46:49.279Z,7.38
2023-01-19T22:49:17.866Z,8.65
2023-01-19T22:51:45.202Z,8.23
2023-01-19T22:54:12.196Z,6.47
2023-01-19T22:56:39.997Z,7.25
2023-01-19T22:59:07.591Z,7.10
2023-01-19T23:01:39.870Z,7.13
2023-01-19T23:04:07.760Z,5.60
2023-01-19T23:06:37.031Z,5.85
2023-01-19T23:09:07.107Z,7.82
2023-01-19T23:11:36.376Z,8.05
2023-01-19T23:14:04.217Z,10.65
2023-01-19T23:16:31.061Z,9.05
2023-01-19T23:18:58.469Z,6.38
2023-01-19T23:21:27.429Z,5.95
2023-01-19T23:23:59.176Z,6.20
2023-01-19T23:26:27.217Z,6.45
2023-01-19T23:28:56.535Z,7.72
2023-01-19T23:33:56.004Z,6.60
2023-01-19T23:36:24.189Z,6.65
2023-01-19T23:38:54.199Z,7.63
2023-01-19T23:41:21.937Z,6.55
2023-01-19T23:43:49.008Z,6.47
2023-01-19T23:46:16.356Z,6.07
2023-01-19T23:48:42.872Z,5.50
2023-01-19T23:51:24.076Z,7.93
2023-01-19T23:53:51.009Z,5.57
2023-01-19T23:56:32.902Z,6.40
2023-01-19T23:59:04.794Z,6.25
